sensor_id;sensor_type;location;lat;lon;timestamp;P1;durP1;ratioP1;P2;durP2;ratioP2
15946;SDS011;8072;52.554;7.966;2022-08-01T00:00:39;9.43;;;6.82;;
15946;SDS011;8072;52.554;7.966;2022-08-01T00:03:05;9.88;;;6.63;;
15946;SDS011;8072;52.554;7.966;2022-08-01T00:05:31;9.85;;;6.63;;
15946;SDS011;8072;52.554;7.966;2022-08-01T00:07:56;8.57;;;6.68;;
15946;SDS011;8072;52.554;7.966;2022-08-01T00:10:22;8.93;;;6.60;;
15946;SDS011;8072;52.554;7.966;2022-08-01T00:12:49;7.88;;;6.28;;
15946;SDS011;8072;52.554;7.966;2022-08-01T00:15:15;8.02;;;6.30;;
15946;SDS011;8072;52.554;7.966;2022-08-01T00:17:42;9.85;;;6.18;;
15946;SDS011;8072;52.554;7.966;2022-08-01T00:20:10;8.23;;;5.65;;
15946;SDS011;8072;52.554;7.966;2022-08-01T00:22:39;6.68;;;4.38;;
15946;SDS011;8072;52.554;7.966;2022-08-01T00:25:05;4.80;;;4.20;;
15946;SDS011;8072;52.554;7.966;2022-08-01T00:27:31;5.13;;;3.53;;
15946;SDS011;8072;52.554;7.966;2022-08-01T00:29:57;4.70;;;3.38;;
15946;SDS011;8072;52.554;7.966;2022-08-01T00:32:23;4.47;;;3.22;;
15946;SDS011;8072;52.554;7.966;2022-08-01T00:34:49;5.10;;;3.50;;
15946;SDS011;8072;52.554;7.966;2022-08-01T00:37:15;4.32;;;3.00;;
15946;SDS011;8072;52.554;7.966;2022-08-01T00:39:41;3.67;;;3.10;;
15946;SDS011;8072;52.554;7.966;2022-08-01T00:42:07;4.00;;;2.70;;
15946;SDS011;8072;52.554;7.966;2022-08-01T00:44:35;3.67;;;3.08;;
15946;SDS011;8072;52.554;7.966;2022-08-01T00:47:02;5.33;;;3.13;;
15946;SDS011;8072;52.554;7.966;2022-08-01T00:49:28;4.90;;;3.10;;
15946;SDS011;8072;52.554;7.966;2022-08-01T00:51:54;5.63;;;3.53;;
15946;SDS011;8072;52.554;7.966;2022-08-01T00:54:20;6.90;;;3.70;;
15946;SDS011;8072;52.554;7.966;2022-08-01T00:56:48;5.93;;;4.07;;
15946;SDS011;8072;52.554;7.966;2022-08-01T00:59:14;6.35;;;4.03;;
15946;SDS011;8072;52.554;7.966;2022-08-01T01:01:42;4.80;;;3.72;;
15946;SDS011;8072;52.554;7.966;2022-08-01T01:04:09;4.40;;;3.60;;
15946;SDS011;8072;52.554;7.966;2022-08-01T01:06:44;4.45;;;3.92;;
15946;SDS011;8072;52.554;7.966;2022-08-01T01:09:46;7.15;;;3.80;;
15946;SDS011;8072;52.554;7.966;2022-08-01T01:12:22;5.32;;;3.80;;
15946;SDS011;8072;52.554;7.966;2022-08-01T01:17:52;4.00;;;3.38;;
15946;SDS011;8072;52.554;7.966;2022-08-01T01:20:32;5.43;;;3.53;;
15946;SDS011;8072;52.554;7.966;2022-08-01T01:32:05;5.70;;;4.07;;
15946;SDS011;8072;52.554;7.966;2022-08-01T01:34:35;5.90;;;4.60;;
15946;SDS011;8072;52.554;7.966;2022-08-01T01:37:04;6.67;;;4.20;;
15946;SDS011;8072;52.554;7.966;2022-08-01T01:39:34;7.13;;;5.13;;
15946;SDS011;8072;52.554;7.966;2022-08-01T01:42:02;7.37;;;4.60;;
15946;SDS011;8072;52.554;7.966;2022-08-01T01:44:31;5.05;;;4.18;;
15946;SDS011;8072;52.554;7.966;2022-08-01T01:46:57;6.35;;;4.45;;
15946;SDS011;8072;52.554;7.966;2022-08-01T01:49:26;7.40;;;4.75;;
15946;SDS011;8072;52.554;7.966;2022-08-01T01:51:54;7.65;;;5.30;;
15946;SDS011;8072;52.554;7.966;2022-08-01T01:54:21;6.97;;;5.43;;
15946;SDS011;8072;52.554;7.966;2022-08-01T01:56:49;6.80;;;5.28;;
15946;SDS011;8072;52.554;7.966;2022-08-01T01:59:20;8.13;;;5.70;;
15946;SDS011;8072;52.554;7.966;2022-08-01T02:01:49;9.40;;;5.57;;
15946;SDS011;8072;52.554;7.966;2022-08-01T02:04:17;11.95;;;5.50;;
15946;SDS011;8072;52.554;7.966;2022-08-01T02:06:46;8.65;;;6.07;;
15946;SDS011;8072;52.554;7.966;2022-08-01T02:09:18;7.63;;;5.90;;
15946;SDS011;8072;52.554;7.966;2022-08-01T02:11:46;7.82;;;5.88;;
15946;SDS011;8072;52.554;7.966;2022-08-01T02:14:16;10.17;;;6.13;;
15946;SDS011;8072;52.554;7.966;2022-08-01T02:16:44;6.50;;;5.55;;
15946;SDS011;8072;52.554;7.966;2022-08-01T02:19:14;8.10;;;6.00;;
15946;SDS011;8072;52.554;7.966;2022-08-01T02:24:14;7.65;;;5.75;;
15946;SDS011;8072;52.554;7.966;2022-08-01T02:26:49;7.83;;;6.43;;
15946;SDS011;8072;52.554;7.966;2022-08-01T02:29:22;7.30;;;5.27;;
15946;SDS011;8072;52.554;7.966;2022-08-01T02:32:10;9.53;;;5.93;;
15946;SDS011;8072;52.554;7.966;2022-08-01T02:34:49;8.67;;;6.17;;
15946;SDS011;8072;52.554;7.966;2022-08-01T02:37:17;8.23;;;6.20;;
15946;SDS011;8072;52.554;7.966;2022-08-01T02:39:44;8.33;;;6.23;;
15946;SDS011;8072;52.554;7.966;2022-08-01T02:42:15;7.63;;;6.27;;
15946;SDS011;8072;52.554;7.966;2022-08-01T02:44:43;9.60;;;6.25;;
15946;SDS011;8072;52.554;7.966;2022-08-01T02:47:11;9.57;;;6.78;;
15946;SDS011;8072;52.554;7.966;2022-08-01T02:49:42;7.85;;;5.97;;
15946;SDS011;8072;52.554;7.966;2022-08-01T02:52:10;9.73;;;6.32;;
15946;SDS011;8072;52.554;7.966;2022-08-01T02:54:41;9.13;;;6.13;;
15946;SDS011;8072;52.554;7.966;2022-08-01T02:57:09;10.55;;;6.63;;
15946;SDS011;8072;52.554;7.966;2022-08-01T02:59:37;7.72;;;5.72;;
15946;SDS011;8072;52.554;7.966;2022-08-01T03:02:05;8.57;;;6.80;;
15946;SDS011;8072;52.554;7.966;2022-08-01T03:04:33;8.13;;;5.65;;
15946;SDS011;8072;52.554;7.966;2022-08-01T03:07:02;11.38;;;6.80;;
15946;SDS011;8072;52.554;7.966;2022-08-01T03:09:31;9.57;;;6.43;;
15946;SDS011;8072;52.554;7.966;2022-08-01T03:12:00;9.53;;;6.17;;
15946;SDS011;8072;52.554;7.966;2022-08-01T03:14:29;12.25;;;6.82;;
15946;SDS011;8072;52.554;7.966;2022-08-01T03:16:58;9.83;;;5.53;;
15946;SDS011;8072;52.554;7.966;2022-08-01T03:19:26;8.27;;;6.40;;
15946;SDS011;8072;52.554;7.966;2022-08-01T03:21:53;9.47;;;6.30;;
15946;SDS011;8072;52.554;7.966;2022-08-01T03:24:20;8.47;;;5.87;;
15946;SDS011;8072;52.554;7.966;2022-08-01T03:26:48;8.97;;;6.17;;
15946;SDS011;8072;52.554;7.966;2022-08-01T03:29:16;13.93;;;7.33;;
15946;SDS011;8072;52.554;7.966;2022-08-01T03:31:47;9.73;;;6.47;;
15946;SDS011;8072;52.554;7.966;2022-08-01T03:34:13;9.90;;;6.30;;
15946;SDS011;8072;52.554;7.966;2022-08-01T03:36:50;11.57;;;6.70;;
15946;SDS011;8072;52.554;7.966;2022-08-01T03:39:22;10.87;;;7.03;;
15946;SDS011;8072;52.554;7.966;2022-08-01T03:41:54;8.73;;;6.80;;
15946;SDS011;8072;52.554;7.966;2022-08-01T03:44:25;11.70;;;7.07;;
15946;SDS011;8072;52.554;7.966;2022-08-01T03:46:58;9.83;;;6.93;;
15946;SDS011;8072;52.554;7.966;2022-08-01T03:49:30;9.40;;;6.80;;
15946;SDS011;8072;52.554;7.966;2022-08-01T03:51:58;9.20;;;6.53;;
15946;SDS011;8072;52.554;7.966;2022-08-01T03:54:30;11.67;;;6.80;;
15946;SDS011;8072;52.554;7.966;2022-08-01T03:56:58;9.43;;;6.33;;
15946;SDS011;8072;52.554;7.966;2022-08-01T03:59:25;7.80;;;5.97;;
15946;SDS011;8072;52.554;7.966;2022-08-01T04:01:52;8.17;;;6.17;;
15946;SDS011;8072;52.554;7.966;2022-08-01T04:04:18;10.80;;;7.10;;
15946;SDS011;8072;52.554;7.966;2022-08-01T04:06:46;8.03;;;6.37;;
15946;SDS011;8072;52.554;7.966;2022-08-01T04:09:15;8.77;;;6.03;;
15946;SDS011;8072;52.554;7.966;2022-08-01T04:11:41;7.87;;;5.93;;
15946;SDS011;8072;52.554;7.966;2022-08-01T04:14:07;10.87;;;6.50;;
15946;SDS011;8072;52.554;7.966;2022-08-01T04:16:33;8.87;;;6.10;;
15946;SDS011;8072;52.554;7.966;2022-08-01T04:18:59;9.87;;;6.73;;
15946;SDS011;8072;52.554;7.966;2022-08-01T04:21:26;9.00;;;6.30;;
15946;SDS011;8072;52.554;7.966;2022-08-01T04:23:56;11.97;;;6.63;;
15946;SDS011;8072;52.554;7.966;2022-08-01T04:26:24;9.57;;;6.63;;
15946;SDS011;8072;52.554;7.966;2022-08-01T04:28:52;8.60;;;6.40;;
15946;SDS011;8072;52.554;7.966;2022-08-01T04:31:19;9.20;;;6.23;;
15946;SDS011;8072;52.554;7.966;2022-08-01T04:33:48;9.67;;;6.90;;
15946;SDS011;8072;52.554;7.966;2022-08-01T04:36:18;8.53;;;6.60;;
15946;SDS011;8072;52.554;7.966;2022-08-01T04:38:50;9.30;;;6.60;;
15946;SDS011;8072;52.554;7.966;2022-08-01T04:41:20;12.03;;;6.90;;
15946;SDS011;8072;52.554;7.966;2022-08-01T04:43:48;10.80;;;6.30;;
15946;SDS011;8072;52.554;7.966;2022-08-01T04:46:16;10.47;;;5.83;;
15946;SDS011;8072;52.554;7.966;2022-08-01T04:48:43;6.87;;;5.30;;
15946;SDS011;8072;52.554;7.966;2022-08-01T04:51:13;7.03;;;5.37;;
15946;SDS011;8072;52.554;7.966;2022-08-01T04:53:41;9.95;;;5.60;;
15946;SDS011;8072;52.554;7.966;2022-08-01T04:56:07;9.60;;;5.07;;
15946;SDS011;8072;52.554;7.966;2022-08-01T04:58:33;5.97;;;4.50;;
15946;SDS011;8072;52.554;7.966;2022-08-01T05:01:00;6.40;;;4.73;;
15946;SDS011;8072;52.554;7.966;2022-08-01T05:03:26;5.25;;;4.68;;
15946;SDS011;8072;52.554;7.966;2022-08-01T05:05:52;7.60;;;4.10;;
15946;SDS011;8072;52.554;7.966;2022-08-01T05:08:18;6.50;;;4.40;;
15946;SDS011;8072;52.554;7.966;2022-08-01T05:10:44;7.67;;;4.30;;
15946;SDS011;8072;52.554;7.966;2022-08-01T05:13:10;5.83;;;4.30;;
15946;SDS011;8072;52.554;7.966;2022-08-01T05:15:36;5.03;;;4.10;;
15946;SDS011;8072;52.554;7.966;2022-08-01T05:18:03;6.33;;;4.33;;
15946;SDS011;8072;52.554;7.966;2022-08-01T05:20:28;6.60;;;4.13;;
15946;SDS011;8072;52.554;7.966;2022-08-01T05:22:54;5.80;;;3.53;;
15946;SDS011;8072;52.554;7.966;2022-08-01T05:25:20;4.53;;;3.63;;
15946;SDS011;8072;52.554;7.966;2022-08-01T05:27:46;4.97;;;2.90;;
15946;SDS011;8072;52.554;7.966;2022-08-01T05:30:12;4.10;;;2.57;;
15946;SDS011;8072;52.554;7.966;2022-08-01T05:32:38;3.83;;;2.40;;
15946;SDS011;8072;52.554;7.966;2022-08-01T05:35:04;5.00;;;2.53;;
15946;SDS011;8072;52.554;7.966;2022-08-01T05:37:30;5.13;;;2.30;;
15946;SDS011;8072;52.554;7.966;2022-08-01T05:39:56;4.33;;;2.03;;
15946;SDS011;8072;52.554;7.966;2022-08-01T05:42:21;5.30;;;2.60;;
15946;SDS011;8072;52.554;7.966;2022-08-01T05:44:47;2.63;;;2.10;;
15946;SDS011;8072;52.554;7.966;2022-08-01T05:47:13;6.53;;;2.93;;
15946;SDS011;8072;52.554;7.966;2022-08-01T05:49:39;4.70;;;2.17;;
15946;SDS011;8072;52.554;7.966;2022-08-01T05:52:04;1.87;;;1.57;;
15946;SDS011;8072;52.554;7.966;2022-08-01T05:54:30;5.13;;;2.07;;
15946;SDS011;8072;52.554;7.966;2022-08-01T05:56:59;2.23;;;1.50;;
15946;SDS011;8072;52.554;7.966;2022-08-01T05:59:26;3.90;;;1.93;;
15946;SDS011;8072;52.554;7.966;2022-08-01T06:01:53;2.67;;;1.70;;
15946;SDS011;8072;52.554;7.966;2022-08-01T06:04:18;4.33;;;1.70;;
15946;SDS011;8072;52.554;7.966;2022-08-01T06:06:46;6.00;;;1.77;;
15946;SDS011;8072;52.554;7.966;2022-08-01T06:09:12;4.77;;;1.93;;
15946;SDS011;8072;52.554;7.966;2022-08-01T06:11:38;4.00;;;1.80;;
15946;SDS011;8072;52.554;7.966;2022-08-01T06:14:04;3.13;;;1.80;;
15946;SDS011;8072;52.554;7.966;2022-08-01T06:16:30;5.47;;;2.27;;
15946;SDS011;8072;52.554;7.966;2022-08-01T06:18:56;7.27;;;2.73;;
15946;SDS011;8072;52.554;7.966;2022-08-01T06:21:22;4.77;;;2.00;;
15946;SDS011;8072;52.554;7.966;2022-08-01T06:23:47;4.10;;;2.17;;
15946;SDS011;8072;52.554;7.966;2022-08-01T06:26:13;4.20;;;2.30;;
15946;SDS011;8072;52.554;7.966;2022-08-01T06:28:43;4.43;;;2.73;;
15946;SDS011;8072;52.554;7.966;2022-08-01T06:31:09;5.77;;;2.10;;
15946;SDS011;8072;52.554;7.966;2022-08-01T06:33:37;6.30;;;2.10;;
15946;SDS011;8072;52.554;7.966;2022-08-01T06:36:03;3.73;;;2.20;;
15946;SDS011;8072;52.554;7.966;2022-08-01T06:38:29;6.40;;;2.30;;
15946;SDS011;8072;52.554;7.966;2022-08-01T06:40:55;6.40;;;2.93;;
15946;SDS011;8072;52.554;7.966;2022-08-01T06:43:21;5.00;;;2.40;;
15946;SDS011;8072;52.554;7.966;2022-08-01T06:45:47;4.00;;;2.33;;
15946;SDS011;8072;52.554;7.966;2022-08-01T06:48:13;5.60;;;2.40;;
15946;SDS011;8072;52.554;7.966;2022-08-01T06:50:39;5.73;;;3.30;;
15946;SDS011;8072;52.554;7.966;2022-08-01T06:53:05;3.70;;;2.60;;
15946;SDS011;8072;52.554;7.966;2022-08-01T06:55:31;3.70;;;2.20;;
15946;SDS011;8072;52.554;7.966;2022-08-01T06:57:57;4.63;;;2.23;;
15946;SDS011;8072;52.554;7.966;2022-08-01T07:00:23;4.80;;;2.33;;
15946;SDS011;8072;52.554;7.966;2022-08-01T07:02:54;4.07;;;2.03;;
15946;SDS011;8072;52.554;7.966;2022-08-01T07:05:21;8.27;;;2.58;;
15946;SDS011;8072;52.554;7.966;2022-08-01T07:07:47;3.60;;;2.17;;
15946;SDS011;8072;52.554;7.966;2022-08-01T07:10:14;3.20;;;2.27;;
15946;SDS011;8072;52.554;7.966;2022-08-01T07:12:40;5.20;;;2.10;;
15946;SDS011;8072;52.554;7.966;2022-08-01T07:15:06;4.10;;;2.10;;
15946;SDS011;8072;52.554;7.966;2022-08-01T07:17:40;5.70;;;2.20;;
15946;SDS011;8072;52.554;7.966;2022-08-01T07:20:10;3.20;;;2.40;;
15946;SDS011;8072;52.554;7.966;2022-08-01T07:22:37;4.87;;;2.30;;
15946;SDS011;8072;52.554;7.966;2022-08-01T07:25:04;5.25;;;2.20;;
15946;SDS011;8072;52.554;7.966;2022-08-01T07:27:30;4.50;;;2.40;;
15946;SDS011;8072;52.554;7.966;2022-08-01T07:29:56;3.53;;;1.90;;
15946;SDS011;8072;52.554;7.966;2022-08-01T07:32:22;3.40;;;2.20;;
15946;SDS011;8072;52.554;7.966;2022-08-01T07:34:48;4.15;;;1.95;;
15946;SDS011;8072;52.554;7.966;2022-08-01T07:37:14;4.38;;;1.98;;
15946;SDS011;8072;52.554;7.966;2022-08-01T07:39:40;4.17;;;2.07;;
15946;SDS011;8072;52.554;7.966;2022-08-01T07:42:05;4.73;;;2.27;;
15946;SDS011;8072;52.554;7.966;2022-08-01T07:44:31;4.27;;;2.17;;
15946;SDS011;8072;52.554;7.966;2022-08-01T07:46:57;6.70;;;2.57;;
15946;SDS011;8072;52.554;7.966;2022-08-01T07:49:23;2.63;;;2.10;;
15946;SDS011;8072;52.554;7.966;2022-08-01T07:51:50;3.67;;;2.10;;
15946;SDS011;8072;52.554;7.966;2022-08-01T07:54:15;4.50;;;2.30;;
15946;SDS011;8072;52.554;7.966;2022-08-01T07:56:41;5.27;;;2.87;;
15946;SDS011;8072;52.554;7.966;2022-08-01T07:59:07;6.13;;;2.17;;
15946;SDS011;8072;52.554;7.966;2022-08-01T08:01:33;6.05;;;2.38;;
15946;SDS011;8072;52.554;7.966;2022-08-01T08:03:58;8.37;;;2.70;;
15946;SDS011;8072;52.554;7.966;2022-08-01T08:06:24;5.53;;;2.43;;
15946;SDS011;8072;52.554;7.966;2022-08-01T08:08:50;6.45;;;2.90;;
15946;SDS011;8072;52.554;7.966;2022-08-01T08:11:15;7.78;;;2.72;;
15946;SDS011;8072;52.554;7.966;2022-08-01T08:13:41;8.13;;;2.80;;
15946;SDS011;8072;52.554;7.966;2022-08-01T08:16:07;4.27;;;2.60;;
15946;SDS011;8072;52.554;7.966;2022-08-01T08:18:33;9.67;;;3.20;;
15946;SDS011;8072;52.554;7.966;2022-08-01T08:20:58;4.93;;;2.70;;
15946;SDS011;8072;52.554;7.966;2022-08-01T08:23:24;6.55;;;3.00;;
15946;SDS011;8072;52.554;7.966;2022-08-01T08:26:09;8.05;;;2.97;;
15946;SDS011;8072;52.554;7.966;2022-08-01T08:28:35;5.85;;;2.70;;
15946;SDS011;8072;52.554;7.966;2022-08-01T08:31:01;6.23;;;2.70;;
15946;SDS011;8072;52.554;7.966;2022-08-01T08:33:29;6.60;;;2.27;;
15946;SDS011;8072;52.554;7.966;2022-08-01T08:35:54;4.03;;;2.27;;
15946;SDS011;8072;52.554;7.966;2022-08-01T08:38:20;4.70;;;2.33;;
15946;SDS011;8072;52.554;7.966;2022-08-01T08:40:47;10.10;;;2.43;;
15946;SDS011;8072;52.554;7.966;2022-08-01T08:43:13;10.73;;;2.23;;
15946;SDS011;8072;52.554;7.966;2022-08-01T08:45:40;6.88;;;1.92;;
15946;SDS011;8072;52.554;7.966;2022-08-01T08:48:07;5.73;;;2.43;;
15946;SDS011;8072;52.554;7.966;2022-08-01T08:50:33;10.52;;;2.38;;
15946;SDS011;8072;52.554;7.966;2022-08-01T08:53:00;8.43;;;2.30;;
15946;SDS011;8072;52.554;7.966;2022-08-01T08:55:27;8.13;;;2.58;;
15946;SDS011;8072;52.554;7.966;2022-08-01T08:57:53;8.63;;;2.40;;
15946;SDS011;8072;52.554;7.966;2022-08-01T09:00:20;10.00;;;2.58;;
15946;SDS011;8072;52.554;7.966;2022-08-01T09:02:46;12.63;;;2.90;;
15946;SDS011;8072;52.554;7.966;2022-08-01T09:05:14;8.82;;;2.60;;
15946;SDS011;8072;52.554;7.966;2022-08-01T09:07:40;8.48;;;2.60;;
15946;SDS011;8072;52.554;7.966;2022-08-01T09:10:06;8.27;;;2.92;;
15946;SDS011;8072;52.554;7.966;2022-08-01T09:12:34;11.35;;;3.08;;
15946;SDS011;8072;52.554;7.966;2022-08-01T09:15:01;10.52;;;2.40;;
15946;SDS011;8072;52.554;7.966;2022-08-01T09:17:27;8.25;;;2.50;;
15946;SDS011;8072;52.554;7.966;2022-08-01T09:20:04;6.32;;;2.03;;
15946;SDS011;8072;52.554;7.966;2022-08-01T09:22:32;9.25;;;2.30;;
15946;SDS011;8072;52.554;7.966;2022-08-01T09:25:05;7.15;;;2.20;;
15946;SDS011;8072;52.554;7.966;2022-08-01T09:27:33;6.65;;;2.13;;
15946;SDS011;8072;52.554;7.966;2022-08-01T09:30:18;7.28;;;2.03;;
15946;SDS011;8072;52.554;7.966;2022-08-01T09:35:28;9.07;;;2.55;;
15946;SDS011;8072;52.554;7.966;2022-08-01T09:38:18;9.82;;;2.67;;
15946;SDS011;8072;52.554;7.966;2022-08-01T09:40:55;9.85;;;2.50;;
15946;SDS011;8072;52.554;7.966;2022-08-01T09:43:27;7.97;;;2.20;;
15946;SDS011;8072;52.554;7.966;2022-08-01T09:45:57;7.38;;;2.40;;
15946;SDS011;8072;52.554;7.966;2022-08-01T09:48:24;10.93;;;2.80;;
15946;SDS011;8072;52.554;7.966;2022-08-01T09:50:51;14.27;;;2.80;;
15946;SDS011;8072;52.554;7.966;2022-08-01T09:53:18;9.60;;;2.55;;
15946;SDS011;8072;52.554;7.966;2022-08-01T09:55:45;8.75;;;2.60;;
15946;SDS011;8072;52.554;7.966;2022-08-01T09:58:11;5.78;;;2.88;;
15946;SDS011;8072;52.554;7.966;2022-08-01T10:00:37;5.53;;;2.45;;
15946;SDS011;8072;52.554;7.966;2022-08-01T10:05:46;8.20;;;2.42;;
15946;SDS011;8072;52.554;7.966;2022-08-01T10:08:12;10.52;;;2.58;;
15946;SDS011;8072;52.554;7.966;2022-08-01T10:10:38;6.40;;;2.60;;
15946;SDS011;8072;52.554;7.966;2022-08-01T10:13:04;8.00;;;2.42;;
15946;SDS011;8072;52.554;7.966;2022-08-01T10:15:31;9.15;;;2.78;;
15946;SDS011;8072;52.554;7.966;2022-08-01T10:17:58;5.55;;;2.10;;
15946;SDS011;8072;52.554;7.966;2022-08-01T10:20:27;12.00;;;2.72;;
15946;SDS011;8072;52.554;7.966;2022-08-01T10:22:57;7.88;;;2.30;;
15946;SDS011;8072;52.554;7.966;2022-08-01T10:25:26;9.93;;;2.55;;
15946;SDS011;8072;52.554;7.966;2022-08-01T10:27:53;6.90;;;2.42;;
15946;SDS011;8072;52.554;7.966;2022-08-01T10:30:20;11.23;;;2.53;;
15946;SDS011;8072;52.554;7.966;2022-08-01T10:32:46;8.23;;;2.63;;
15946;SDS011;8072;52.554;7.966;2022-08-01T10:35:12;7.60;;;2.38;;
15946;SDS011;8072;52.554;7.966;2022-08-01T10:37:42;14.15;;;2.83;;
15946;SDS011;8072;52.554;7.966;2022-08-01T10:40:11;8.65;;;2.78;;
15946;SDS011;8072;52.554;7.966;2022-08-01T10:42:41;13.05;;;2.78;;
15946;SDS011;8072;52.554;7.966;2022-08-01T10:45:12;9.38;;;2.40;;
15946;SDS011;8072;52.554;7.966;2022-08-01T10:53:19;6.70;;;2.75;;
15946;SDS011;8072;52.554;7.966;2022-08-01T10:58:35;10.98;;;2.90;;
15946;SDS011;8072;52.554;7.966;2022-08-01T11:06:35;7.65;;;2.22;;
15946;SDS011;8072;52.554;7.966;2022-08-01T11:09:46;7.05;;;2.35;;
15946;SDS011;8072;52.554;7.966;2022-08-01T11:12:13;8.65;;;2.28;;
15946;SDS011;8072;52.554;7.966;2022-08-01T11:17:36;8.43;;;2.75;;
15946;SDS011;8072;52.554;7.966;2022-08-01T11:25:26;8.38;;;2.20;;
15946;SDS011;8072;52.554;7.966;2022-08-01T11:30:43;8.70;;;1.98;;
15946;SDS011;8072;52.554;7.966;2022-08-01T11:33:14;6.00;;;2.38;;
15946;SDS011;8072;52.554;7.966;2022-08-01T11:38:36;12.27;;;2.60;;
15946;SDS011;8072;52.554;7.966;2022-08-01T11:41:12;11.63;;;2.35;;
15946;SDS011;8072;52.554;7.966;2022-08-01T11:43:57;8.68;;;2.17;;
15946;SDS011;8072;52.554;7.966;2022-08-01T11:52:16;9.40;;;2.58;;
15946;SDS011;8072;52.554;7.966;2022-08-01T11:57:20;8.23;;;2.00;;
15946;SDS011;8072;52.554;7.966;2022-08-01T11:59:48;7.05;;;2.20;;
15946;SDS011;8072;52.554;7.966;2022-08-01T12:04:53;8.18;;;2.00;;
15946;SDS011;8072;52.554;7.966;2022-08-01T12:07:19;10.10;;;2.40;;
15946;SDS011;8072;52.554;7.966;2022-08-01T12:09:47;9.35;;;2.22;;
15946;SDS011;8072;52.554;7.966;2022-08-01T12:12:16;12.13;;;2.75;;
15946;SDS011;8072;52.554;7.966;2022-08-01T12:14:44;9.68;;;2.08;;
15946;SDS011;8072;52.554;7.966;2022-08-01T12:17:10;12.45;;;2.30;;
15946;SDS011;8072;52.554;7.966;2022-08-01T12:19:36;8.68;;;2.13;;
15946;SDS011;8072;52.554;7.966;2022-08-01T12:22:04;8.45;;;2.00;;
15946;SDS011;8072;52.554;7.966;2022-08-01T12:24:32;7.18;;;1.98;;
15946;SDS011;8072;52.554;7.966;2022-08-01T12:27:04;6.60;;;2.00;;
15946;SDS011;8072;52.554;7.966;2022-08-01T12:29:32;6.47;;;2.08;;
15946;SDS011;8072;52.554;7.966;2022-08-01T12:32:01;7.90;;;2.25;;
15946;SDS011;8072;52.554;7.966;2022-08-01T12:34:27;9.32;;;2.17;;
15946;SDS011;8072;52.554;7.966;2022-08-01T12:36:58;4.07;;;1.58;;
15946;SDS011;8072;52.554;7.966;2022-08-01T12:39:29;9.52;;;2.15;;
15946;SDS011;8072;52.554;7.966;2022-08-01T12:41:58;9.10;;;2.40;;
15946;SDS011;8072;52.554;7.966;2022-08-01T12:44:25;9.63;;;1.88;;
15946;SDS011;8072;52.554;7.966;2022-08-01T12:46:53;6.80;;;1.95;;
15946;SDS011;8072;52.554;7.966;2022-08-01T12:49:20;8.98;;;2.17;;
15946;SDS011;8072;52.554;7.966;2022-08-01T12:51:46;7.97;;;2.17;;
15946;SDS011;8072;52.554;7.966;2022-08-01T12:54:12;8.23;;;2.45;;
15946;SDS011;8072;52.554;7.966;2022-08-01T12:56:37;8.45;;;1.90;;
15946;SDS011;8072;52.554;7.966;2022-08-01T12:59:24;8.85;;;1.88;;
15946;SDS011;8072;52.554;7.966;2022-08-01T13:01:54;10.02;;;1.80;;
15946;SDS011;8072;52.554;7.966;2022-08-01T13:04:21;7.55;;;1.77;;
15946;SDS011;8072;52.554;7.966;2022-08-01T13:06:47;6.05;;;1.52;;
15946;SDS011;8072;52.554;7.966;2022-08-01T13:09:17;6.53;;;1.92;;
15946;SDS011;8072;52.554;7.966;2022-08-01T13:11:44;6.10;;;1.60;;
15946;SDS011;8072;52.554;7.966;2022-08-01T13:14:26;3.95;;;1.58;;
15946;SDS011;8072;52.554;7.966;2022-08-01T13:16:53;7.38;;;1.85;;
15946;SDS011;8072;52.554;7.966;2022-08-01T13:19:18;7.03;;;1.65;;
15946;SDS011;8072;52.554;7.966;2022-08-01T13:21:54;5.72;;;1.60;;
15946;SDS011;8072;52.554;7.966;2022-08-01T13:24:25;6.68;;;1.90;;
15946;SDS011;8072;52.554;7.966;2022-08-01T13:26:54;9.13;;;2.08;;
15946;SDS011;8072;52.554;7.966;2022-08-01T13:29:30;7.35;;;1.70;;
15946;SDS011;8072;52.554;7.966;2022-08-01T13:34:39;7.63;;;2.00;;
15946;SDS011;8072;52.554;7.966;2022-08-01T13:37:05;5.53;;;1.77;;
15946;SDS011;8072;52.554;7.966;2022-08-01T13:39:30;9.00;;;1.83;;
15946;SDS011;8072;52.554;7.966;2022-08-01T13:42:06;11.13;;;1.73;;
15946;SDS011;8072;52.554;7.966;2022-08-01T13:44:32;6.28;;;1.90;;
15946;SDS011;8072;52.554;7.966;2022-08-01T13:46:58;7.85;;;2.03;;
15946;SDS011;8072;52.554;7.966;2022-08-01T13:49:24;7.07;;;1.67;;
15946;SDS011;8072;52.554;7.966;2022-08-01T13:51:50;7.20;;;1.83;;
15946;SDS011;8072;52.554;7.966;2022-08-01T13:54:16;9.10;;;1.88;;
15946;SDS011;8072;52.554;7.966;2022-08-01T13:56:42;5.05;;;1.60;;
15946;SDS011;8072;52.554;7.966;2022-08-01T13:59:08;7.82;;;2.10;;
15946;SDS011;8072;52.554;7.966;2022-08-01T14:01:35;7.72;;;1.50;;
15946;SDS011;8072;52.554;7.966;2022-08-01T14:04:01;5.93;;;1.88;;
15946;SDS011;8072;52.554;7.966;2022-08-01T14:06:28;7.22;;;1.90;;
15946;SDS011;8072;52.554;7.966;2022-08-01T14:08:54;5.25;;;1.40;;
15946;SDS011;8072;52.554;7.966;2022-08-01T14:11:20;8.68;;;2.15;;
15946;SDS011;8072;52.554;7.966;2022-08-01T14:13:46;4.45;;;1.75;;
15946;SDS011;8072;52.554;7.966;2022-08-01T14:16:12;7.38;;;1.63;;
15946;SDS011;8072;52.554;7.966;2022-08-01T14:18:37;5.47;;;1.60;;
15946;SDS011;8072;52.554;7.966;2022-08-01T14:21:03;6.40;;;1.60;;
15946;SDS011;8072;52.554;7.966;2022-08-01T14:23:29;4.28;;;1.85;;
15946;SDS011;8072;52.554;7.966;2022-08-01T14:25:55;4.78;;;1.70;;
15946;SDS011;8072;52.554;7.966;2022-08-01T14:28:20;7.30;;;1.67;;
15946;SDS011;8072;52.554;7.966;2022-08-01T14:30:46;7.20;;;1.80;;
15946;SDS011;8072;52.554;7.966;2022-08-01T14:33:12;7.07;;;1.60;;
15946;SDS011;8072;52.554;7.966;2022-08-01T14:35:39;6.82;;;1.70;;
15946;SDS011;8072;52.554;7.966;2022-08-01T14:38:05;4.05;;;1.30;;
15946;SDS011;8072;52.554;7.966;2022-08-01T14:40:31;8.80;;;1.80;;
15946;SDS011;8072;52.554;7.966;2022-08-01T14:42:57;8.25;;;2.33;;
15946;SDS011;8072;52.554;7.966;2022-08-01T14:45:22;7.25;;;1.98;;
15946;SDS011;8072;52.554;7.966;2022-08-01T14:47:48;9.70;;;1.77;;
15946;SDS011;8072;52.554;7.966;2022-08-01T14:50:15;7.13;;;1.83;;
15946;SDS011;8072;52.554;7.966;2022-08-01T14:52:41;4.80;;;1.48;;
15946;SDS011;8072;52.554;7.966;2022-08-01T14:55:08;5.07;;;1.70;;
15946;SDS011;8072;52.554;7.966;2022-08-01T14:57:35;4.40;;;1.45;;
15946;SDS011;8072;52.554;7.966;2022-08-01T15:00:06;4.45;;;1.50;;
15946;SDS011;8072;52.554;7.966;2022-08-01T15:02:36;7.95;;;1.90;;
15946;SDS011;8072;52.554;7.966;2022-08-01T15:05:02;6.65;;;1.60;;
15946;SDS011;8072;52.554;7.966;2022-08-01T15:07:29;9.00;;;1.70;;
15946;SDS011;8072;52.554;7.966;2022-08-01T15:09:54;5.10;;;2.13;;
15946;SDS011;8072;52.554;7.966;2022-08-01T15:12:21;8.50;;;2.42;;
15946;SDS011;8072;52.554;7.966;2022-08-01T15:14:47;5.03;;;1.90;;
15946;SDS011;8072;52.554;7.966;2022-08-01T15:17:13;5.72;;;1.52;;
15946;SDS011;8072;52.554;7.966;2022-08-01T15:19:41;2.95;;;1.38;;
15946;SDS011;8072;52.554;7.966;2022-08-01T15:22:07;3.42;;;1.48;;
15946;SDS011;8072;52.554;7.966;2022-08-01T15:24:33;5.00;;;1.33;;
15946;SDS011;8072;52.554;7.966;2022-08-01T15:26:59;3.40;;;1.50;;
15946;SDS011;8072;52.554;7.966;2022-08-01T15:29:25;5.60;;;1.27;;
15946;SDS011;8072;52.554;7.966;2022-08-01T15:31:51;6.57;;;1.38;;
15946;SDS011;8072;52.554;7.966;2022-08-01T15:34:16;3.85;;;1.23;;
15946;SDS011;8072;52.554;7.966;2022-08-01T15:36:42;5.95;;;1.60;;
15946;SDS011;8072;52.554;7.966;2022-08-01T15:39:11;4.38;;;1.50;;
15946;SDS011;8072;52.554;7.966;2022-08-01T15:41:37;7.07;;;1.30;;
15946;SDS011;8072;52.554;7.966;2022-08-01T15:44:02;6.68;;;1.30;;
15946;SDS011;8072;52.554;7.966;2022-08-01T15:46:28;3.47;;;1.30;;
15946;SDS011;8072;52.554;7.966;2022-08-01T15:48:54;5.38;;;1.30;;
15946;SDS011;8072;52.554;7.966;2022-08-01T15:51:20;3.55;;;1.33;;
15946;SDS011;8072;52.554;7.966;2022-08-01T15:53:46;7.25;;;1.60;;
15946;SDS011;8072;52.554;7.966;2022-08-01T15:56:12;2.90;;;1.35;;
15946;SDS011;8072;52.554;7.966;2022-08-01T15:58:38;2.38;;;1.10;;
15946;SDS011;8072;52.554;7.966;2022-08-01T16:01:04;3.00;;;1.05;;
15946;SDS011;8072;52.554;7.966;2022-08-01T16:03:30;4.95;;;1.63;;
15946;SDS011;8072;52.554;7.966;2022-08-01T16:05:59;3.92;;;1.30;;